createdAt,value
2023-02-15T00:02:02.134Z,49.83
2023-02-15T00:04:46.960Z,43.88
2023-02-15T00:07:17.542Z,49.63
2023-02-15T00:09:46.475Z,52.47
2023-02-15T00:12:13.554Z,49.42
2023-02-15T00:14:40.218Z,47.42
2023-02-15T00:17:06.970Z,50.92
2023-02-15T00:19:33.796Z,46.13
2023-02-15T00:22:01.164Z,47.75
2023-02-15T00:24:27.904Z,50.40
2023-02-15T00:26:54.658Z,55.28
2023-02-15T00:29:21.593Z,48.17
2023-02-15T00:31:49.172Z,47.20
2023-02-15T00:34:18.353Z,54.10
2023-02-15T00:36:45.758Z,50.35
2023-02-15T00:39:15.295Z,53.55
2023-02-15T00:41:42.117Z,59.10
2023-02-15T00:44:09.270Z,56.38
2023-02-15T00:46:36.251Z,60.20
2023-02-15T00:49:03.841Z,54.45
2023-02-15T00:51:31.892Z,54.30
2023-02-15T00:53:58.787Z,52.10
2023-02-15T00:56:25.602Z,52.53
2023-02-15T00:58:52.395Z,54.25
2023-02-15T01:01:20.178Z,50.58
2023-02-15T01:03:47.555Z,52.72
2023-02-15T01:06:15.654Z,53.60
2023-02-15T01:08:44.547Z,55.17
2023-02-15T01:11:13.529Z,57.88
2023-02-15T01:13:40.985Z,51.17
2023-02-15T01:16:07.852Z,59.92
2023-02-15T01:18:35.429Z,57.50
2023-02-15T01:21:16.215Z,56.65
2023-02-15T01:23:45.222Z,54.90
2023-02-15T01:26:13.567Z,52.83
2023-02-15T01:28:40.315Z,51.67
2023-02-15T01:31:08.900Z,50.58
2023-02-15T01:33:36.588Z,48.45
2023-02-15T01:36:03.978Z,50.97
2023-02-15T01:38:32.796Z,49.55
2023-02-15T01:41:18.421Z,53.03
2023-02-15T01:43:48.029Z,52.00
2023-02-15T01:46:16.421Z,47.05
2023-02-15T01:48:47.566Z,55.00
2023-02-15T01:51:15.639Z,50.67
2023-02-15T01:53:46.467Z,52.97
2023-02-15T01:56:16.453Z,55.53
2023-02-15T01:58:50.264Z,50.65
2023-02-15T02:01:17.652Z,51.65
2023-02-15T02:04:02.698Z,51.63
2023-02-15T02:06:30.750Z,48.15
2023-02-15T02:08:57.820Z,50.03
2023-02-15T02:11:25.288Z,41.05
2023-02-15T02:13:52.756Z,42.78
2023-02-15T02:16:38.838Z,41.80
2023-02-15T02:19:31.787Z,46.83
2023-02-15T02:22:33.357Z,36.38
2023-02-15T02:25:00.107Z,43.25
2023-02-15T02:27:32.863Z,42.42
2023-02-15T02:30:31.237Z,44.35
2023-02-15T02:33:00.922Z,45.92
2023-02-15T02:35:35.597Z,42.65
2023-02-15T02:38:20.227Z,44.97
2023-02-15T02:41:12.852Z,43.58
2023-02-15T02:43:51.867Z,40.45
2023-02-15T02:46:23.444Z,39.00
2023-02-15T02:48:50.489Z,40.95
2023-02-15T02:51:22.280Z,42.33
2023-02-15T02:53:52.301Z,40.20
2023-02-15T02:56:31.659Z,35.50
2023-02-15T02:59:04.831Z,43.97
2023-02-15T03:01:36.404Z,36.85
2023-02-15T03:04:07.739Z,36.85
2023-02-15T03:06:43.436Z,39.60
2023-02-15T03:09:16.863Z,40.63
2023-02-15T03:11:45.261Z,37.72
2023-02-15T03:14:14.121Z,37.08
2023-02-15T03:16:41.630Z,38.90
2023-02-15T03:19:15.874Z,37.95
2023-02-15T03:22:04.772Z,35.75
2023-02-15T03:24:43.167Z,35.15
2023-02-15T03:27:18.248Z,34.67
2023-02-15T03:29:47.738Z,34.72
2023-02-15T03:32:15.870Z,37.33
2023-02-15T03:34:43.299Z,35.38
2023-02-15T03:37:33.813Z,37.03
2023-02-15T03:40:31.178Z,31.00
2023-02-15T03:43:33.091Z,33.90
2023-02-15T03:46:07.592Z,33.15
2023-02-15T03:48:37.947Z,33.83
2023-02-15T03:51:31.805Z,39.60
2023-02-15T03:56:25.265Z,34.22
2023-02-15T03:59:10.484Z,32.85
2023-02-15T04:02:00.329Z,33.35
2023-02-15T04:04:43.154Z,34.95
2023-02-15T04:07:10.846Z,33.65
2023-02-15T04:09:56.174Z,36.85
2023-02-15T04:12:23.264Z,33.72
2023-02-15T04:15:08.299Z,34.38
2023-02-15T04:17:38.556Z,34.17
2023-02-15T04:20:24.295Z,32.03
2023-02-15T04:23:09.842Z,34.78
2023-02-15T04:25:36.586Z,36.13
2023-02-15T04:28:03.470Z,32.15
2023-02-15T04:30:30.345Z,34.03
2023-02-15T04:32:58.125Z,34.47
2023-02-15T04:35:24.842Z,33.28
2023-02-15T04:37:51.706Z,30.73
2023-02-15T04:40:19.650Z,32.17
2023-02-15T04:42:49.476Z,32.40
2023-02-15T04:45:16.228Z,29.25
2023-02-15T04:47:42.875Z,35.78
2023-02-15T04:50:09.905Z,35.15
2023-02-15T04:52:37.131Z,32.78
2023-02-15T04:55:04.183Z,34.50
2023-02-15T04:57:33.939Z,32.50
2023-02-15T05:00:00.742Z,32.88
2023-02-15T05:02:27.443Z,31.15
2023-02-15T05:04:54.167Z,30.95
2023-02-15T05:07:23.677Z,30.23
2023-02-15T05:09:50.493Z,30.67
2023-02-15T05:12:17.178Z,28.52
2023-02-15T05:14:48.481Z,30.15
2023-02-15T05:17:15.164Z,32.95
2023-02-15T05:19:41.876Z,28.75
2023-02-15T05:22:08.606Z,30.98
2023-02-15T05:24:54.222Z,26.92
2023-02-15T05:27:39.603Z,29.23
2023-02-15T05:30:12.503Z,30.13
2023-02-15T05:32:39.944Z,27.25
2023-02-15T05:35:08.580Z,31.02
2023-02-15T05:37:35.354Z,27.45
2023-02-15T05:40:02.281Z,29.73
2023-02-15T05:42:28.963Z,29.52
2023-02-15T05:44:55.748Z,31.17
2023-02-15T05:47:22.728Z,29.35
2023-02-15T05:49:49.451Z,29.52
2023-02-15T05:52:16.152Z,32.35
2023-02-15T05:54:42.809Z,26.50
2023-02-15T05:57:09.476Z,30.35
2023-02-15T05:59:36.238Z,30.75
2023-02-15T06:02:03.117Z,27.10
2023-02-15T06:04:29.798Z,27.67
2023-02-15T06:06:56.635Z,27.92
2023-02-15T06:09:23.366Z,31.08
2023-02-15T06:11:50.142Z,30.92
2023-02-15T06:14:16.952Z,30.52
2023-02-15T06:16:43.592Z,29.58
2023-02-15T06:19:10.276Z,28.80
2023-02-15T06:21:36.954Z,32.83
2023-02-15T06:24:03.857Z,27.75
2023-02-15T06:26:30.672Z,31.10
2023-02-15T06:28:57.325Z,29.92
2023-02-15T06:31:24.100Z,30.60
2023-02-15T06:33:50.900Z,31.30
2023-02-15T06:36:17.595Z,31.45
2023-02-15T06:38:44.345Z,30.55
2023-02-15T06:41:11.023Z,35.35
2023-02-15T06:43:39.991Z,29.17
2023-02-15T06:46:07.356Z,30.70
2023-02-15T06:48:34.084Z,33.00
2023-02-15T06:51:00.813Z,32.97
2023-02-15T06:53:27.502Z,31.83
2023-02-15T06:55:54.148Z,30.13
2023-02-15T06:58:20.858Z,31.55
2023-02-15T07:00:47.600Z,29.02
2023-02-15T07:03:15.110Z,30.85
2023-02-15T07:05:41.759Z,30.30
2023-02-15T07:08:08.595Z,27.13
2023-02-15T07:10:35.246Z,27.42
2023-02-15T07:13:02.077Z,29.63
2023-02-15T07:15:28.877Z,32.53
2023-02-15T07:17:55.513Z,30.30
2023-02-15T07:20:23.438Z,32.25
2023-02-15T07:22:50.860Z,31.33
2023-02-15T07:25:17.735Z,32.47
2023-02-15T07:27:45.652Z,31.70
2023-02-15T07:30:14.960Z,29.27
2023-02-15T07:33:04.626Z,29.73
2023-02-15T07:35:31.707Z,33.00
2023-02-15T07:37:58.406Z,30.50
2023-02-15T07:40:25.376Z,28.88
2023-02-15T07:42:54.163Z,30.23
2023-02-15T07:45:22.089Z,28.83
2023-02-15T07:47:48.810Z,28.20
2023-02-15T07:50:15.651Z,27.83
2023-02-15T07:52:42.390Z,26.42
2023-02-15T07:55:09.801Z,26.73
2023-02-15T07:57:36.563Z,28.42
2023-02-15T08:00:04.295Z,28.65
2023-02-15T08:02:39.470Z,27.27
2023-02-15T08:05:07.104Z,30.38
2023-02-15T08:07:34.005Z,29.25
2023-02-15T08:10:00.769Z,28.85
2023-02-15T08:12:28.369Z,27.25
2023-02-15T08:14:55.011Z,30.48
2023-02-15T08:17:21.680Z,28.08
2023-02-15T08:19:48.608Z,29.52
2023-02-15T08:22:15.530Z,31.60
2023-02-15T08:24:42.506Z,30.90
2023-02-15T08:27:11.746Z,29.90
2023-02-15T08:29:39.321Z,31.48
2023-02-15T08:32:08.257Z,30.73
2023-02-15T08:34:37.410Z,30.35
2023-02-15T08:37:04.298Z,28.63
2023-02-15T08:39:31.018Z,29.08
2023-02-15T08:41:57.763Z,32.72
2023-02-15T08:44:24.491Z,29.50
2023-02-15T08:46:51.704Z,24.48
2023-02-15T08:49:21.052Z,30.55
2023-02-15T08:51:48.441Z,28.70
2023-02-15T08:54:17.108Z,29.33
2023-02-15T08:56:46.222Z,26.58
2023-02-15T08:59:30.787Z,29.27
2023-02-15T09:01:57.571Z,27.55
2023-02-15T09:04:24.489Z,29.55
2023-02-15T09:06:51.437Z,28.85
2023-02-15T09:09:18.862Z,30.33
2023-02-15T09:11:47.363Z,27.33
2023-02-15T09:14:16.912Z,26.63
2023-02-15T09:16:47.181Z,28.85
2023-02-15T09:19:14.167Z,30.30
2023-02-15T09:21:40.946Z,26.95
2023-02-15T09:24:10.548Z,31.58
2023-02-15T09:26:41.499Z,27.70
2023-02-15T09:29:08.829Z,30.50
2023-02-15T09:31:45.210Z,27.38
2023-02-15T09:34:14.354Z,29.90
2023-02-15T09:36:42.012Z,28.05
2023-02-15T09:39:11.882Z,31.58
2023-02-15T09:41:54.350Z,32.65
2023-02-15T09:44:26.747Z,28.48
2023-02-15T09:47:21.314Z,28.90
2023-02-15T09:50:04.186Z,31.80
2023-02-15T09:52:41.213Z,31.73
2023-02-15T09:55:42.242Z,27.52
2023-02-15T09:58:18.537Z,30.80
2023-02-15T10:01:09.351Z,30.30
2023-02-15T10:03:36.027Z,27.85
2023-02-15T10:06:22.576Z,28.00
2023-02-15T10:09:11.060Z,30.15
2023-02-15T10:11:51.594Z,29.55
2023-02-15T10:14:40.187Z,27.63
2023-02-15T10:17:37.732Z,30.98
2023-02-15T10:20:19.740Z,26.55
2023-02-15T10:23:28.047Z,27.67
2023-02-15T10:26:16.175Z,28.88
2023-02-15T10:28:48.229Z,27.98
2023-02-15T10:31:36.419Z,29.88
2023-02-15T10:34:31.060Z,28.88
2023-02-15T10:37:00.401Z,29.05
2023-02-15T10:39:35.261Z,28.48
2023-02-15T10:42:39.639Z,36.25
2023-02-15T10:45:14.922Z,31.60
2023-02-15T10:47:41.567Z,28.25
2023-02-15T10:50:22.592Z,28.67
2023-02-15T10:53:17.434Z,29.42
2023-02-15T10:56:01.846Z,33.40
2023-02-15T10:59:00.243Z,29.85
2023-02-15T11:02:04.465Z,29.80
2023-02-15T11:04:43.018Z,31.38
2023-02-15T11:07:22.540Z,29.25
2023-02-15T11:09:54.255Z,28.92
2023-02-15T11:12:24.358Z,29.15
2023-02-15T11:18:01.540Z,31.77
2023-02-15T11:20:34.595Z,29.52
2023-02-15T11:23:02.697Z,32.85
2023-02-15T11:25:31.797Z,33.47
2023-02-15T11:27:58.560Z,34.83
2023-02-15T11:30:45.334Z,32.40
2023-02-15T11:33:26.599Z,30.85
2023-02-15T11:36:28.612Z,34.08
2023-02-15T11:39:02.973Z,29.00
2023-02-15T11:41:32.899Z,32.20
2023-02-15T11:44:07.990Z,31.83
2023-02-15T11:46:34.794Z,30.90
2023-02-15T11:49:01.709Z,32.53
2023-02-15T11:51:29.728Z,29.52
2023-02-15T11:53:57.227Z,31.75
2023-02-15T11:56:25.363Z,32.20
2023-02-15T11:59:00.773Z,33.58
2023-02-15T12:01:34.449Z,36.45
2023-02-15T12:04:26.325Z,34.92
2023-02-15T12:07:02.268Z,33.72
2023-02-15T12:09:50.337Z,33.90
2023-02-15T12:12:27.579Z,33.30
2023-02-15T12:14:56.115Z,35.78
2023-02-15T12:17:25.352Z,36.28
2023-02-15T12:19:53.538Z,34.30
2023-02-15T12:22:25.137Z,37.35
2023-02-15T12:24:53.938Z,35.47
2023-02-15T12:27:23.306Z,34.15
2023-02-15T12:29:57.372Z,38.22
2023-02-15T12:32:27.315Z,33.40
2023-02-15T12:35:01.494Z,33.97
2023-02-15T12:37:30.296Z,34.35
2023-02-15T12:39:59.132Z,35.53
2023-02-15T12:42:27.188Z,32.42
2023-02-15T12:44:53.913Z,32.22
2023-02-15T12:47:20.841Z,30.00
2023-02-15T12:50:17.577Z,34.05
2023-02-15T12:52:46.179Z,31.90
2023-02-15T12:55:33.138Z,30.58
2023-02-15T12:58:14.841Z,30.30
2023-02-15T13:00:41.949Z,30.58
2023-02-15T13:03:18.109Z,33.15
2023-02-15T13:05:46.280Z,31.20
2023-02-15T13:08:21.885Z,35.70
2023-02-15T13:11:04.115Z,35.00
2023-02-15T13:13:33.116Z,35.05
2023-02-15T13:16:06.404Z,29.92
2023-02-15T13:18:36.855Z,32.97
2023-02-15T13:21:14.513Z,35.20
2023-02-15T13:23:46.163Z,34.40
2023-02-15T13:26:18.203Z,35.40
2023-02-15T13:28:53.394Z,32.60
2023-02-15T13:31:21.848Z,33.15
2023-02-15T13:34:02.738Z,33.30
2023-02-15T13:36:47.493Z,32.28
2023-02-15T13:39:20.314Z,32.85
2023-02-15T13:41:57.569Z,37.33
2023-02-15T13:44:54.259Z,30.55
2023-02-15T13:47:51.786Z,31.95
2023-02-15T13:50:18.489Z,34.90
2023-02-15T13:53:11.939Z,30.80
2023-02-15T13:55:54.543Z,34.25
2023-02-15T13:58:31.340Z,29.80
2023-02-15T14:01:19.249Z,34.53
2023-02-15T14:04:19.134Z,29.25
2023-02-15T14:07:07.452Z,33.47
2023-02-15T14:09:53.443Z,31.48
2023-02-15T14:12:27.533Z,36.17
2023-02-15T14:15:14.728Z,35.17
2023-02-15T14:18:05.334Z,28.38
2023-02-15T14:20:37.926Z,32.30
2023-02-15T14:23:07.355Z,32.67
2023-02-15T14:25:47.268Z,31.70
2023-02-15T14:28:30.956Z,28.95
2023-02-15T14:30:58.472Z,32.78
2023-02-15T14:33:40.830Z,30.70
2023-02-15T14:36:09.183Z,32.55
2023-02-15T14:38:57.619Z,29.80
2023-02-15T14:41:38.334Z,28.80
2023-02-15T14:44:24.557Z,31.30
2023-02-15T14:47:10.771Z,32.58
2023-02-15T14:49:39.208Z,32.42
2023-02-15T14:52:09.348Z,29.05
2023-02-15T14:54:35.957Z,32.53
2023-02-15T14:57:02.601Z,30.20
2023-02-15T14:59:51.232Z,34.10
2023-02-15T15:02:20.992Z,31.80
2023-02-15T15:05:16.473Z,32.20
2023-02-15T15:07:50.628Z,30.58
2023-02-15T15:10:17.310Z,29.42
2023-02-15T15:12:56.240Z,30.00
2023-02-15T15:15:28.777Z,32.47
2023-02-15T15:18:00.042Z,32.55
2023-02-15T15:20:26.662Z,31.55
2023-02-15T15:23:16.072Z,33.92
2023-02-15T15:25:48.789Z,29.45
2023-02-15T15:28:47.694Z,31.15
2023-02-15T15:31:33.276Z,28.50
2023-02-15T15:34:02.874Z,35.80
2023-02-15T15:37:00.189Z,32.80
2023-02-15T15:39:54.067Z,32.22
2023-02-15T15:42:32.943Z,34.60
2023-02-15T15:45:33.600Z,31.05
2023-02-15T15:48:16.569Z,33.63
2023-02-15T15:50:43.543Z,33.88
2023-02-15T15:53:24.178Z,31.27
2023-02-15T15:55:55.003Z,30.92
2023-02-15T15:58:21.815Z,33.72
2023-02-15T16:00:51.043Z,30.08
2023-02-15T16:03:28.258Z,35.33
2023-02-15T16:06:01.289Z,34.90
2023-02-15T16:08:33.322Z,35.22
2023-02-15T16:11:11.809Z,32.05
2023-02-15T16:13:43.876Z,32.13
2023-02-15T16:16:13.732Z,33.90
2023-02-15T16:18:43.208Z,29.67
2023-02-15T16:21:20.928Z,32.83
2023-02-15T16:24:15.134Z,28.10
2023-02-15T16:27:04.910Z,36.15
2023-02-15T16:29:34.045Z,30.58
2023-02-15T16:32:06.746Z,29.20
2023-02-15T16:34:34.265Z,30.83
2023-02-15T16:37:17.668Z,42.17
2023-02-15T16:42:12.518Z,32.58
2023-02-15T16:44:40.537Z,32.08
2023-02-15T16:47:15.611Z,34.90
2023-02-15T16:49:46.063Z,33.45
2023-02-15T16:52:16.752Z,31.77
2023-02-15T16:54:44.103Z,34.17
2023-02-15T16:57:20.122Z,32.03
2023-02-15T16:59:49.308Z,31.98
2023-02-15T17:02:43.157Z,39.17
2023-02-15T17:05:11.387Z,30.00
2023-02-15T17:07:42.109Z,35.15
2023-02-15T17:10:31.867Z,32.53
2023-02-15T17:13:10.796Z,32.17
2023-02-15T17:15:40.214Z,32.72
2023-02-15T17:18:15.641Z,49.30
2023-02-15T17:20:43.728Z,37.92
2023-02-15T17:23:42.380Z,36.50
2023-02-15T17:26:32.923Z,40.00
2023-02-15T17:29:14.019Z,33.88
2023-02-15T17:31:41.088Z,33.60
2023-02-15T17:34:42.715Z,28.92
2023-02-15T17:37:38.632Z,34.35
2023-02-15T17:40:26.328Z,31.48
2023-02-15T17:42:53.448Z,32.13
2023-02-15T17:45:21.498Z,32.38
2023-02-15T17:47:50.164Z,32.22
2023-02-15T17:50:23.708Z,33.40
2023-02-15T17:52:51.405Z,33.95
2023-02-15T17:55:35.271Z,38.55
2023-02-15T17:58:04.349Z,37.88
2023-02-15T18:00:50.727Z,31.50
2023-02-15T18:03:36.448Z,36.40
2023-02-15T18:06:22.283Z,40.22
2023-02-15T18:09:07.603Z,36.17
2023-02-15T18:11:37.885Z,40.03
2023-02-15T18:14:09.580Z,39.08
2023-02-15T18:16:38.588Z,36.08
2023-02-15T18:19:05.822Z,38.92
2023-02-15T18:21:33.583Z,39.15
2023-02-15T18:24:00.300Z,34.72
2023-02-15T18:26:27.643Z,34.75
2023-02-15T18:28:54.408Z,35.10
2023-02-15T18:31:21.557Z,34.13
2023-02-15T18:33:50.736Z,39.80
2023-02-15T18:36:29.714Z,33.10
2023-02-15T18:38:56.543Z,35.40
2023-02-15T18:41:23.515Z,34.65
2023-02-15T18:43:52.173Z,35.28
2023-02-15T18:46:19.047Z,34.80
2023-02-15T18:48:48.843Z,32.55
2023-02-15T18:51:23.553Z,32.97
2023-02-15T18:53:52.208Z,36.63
2023-02-15T18:56:21.458Z,37.63
2023-02-15T18:58:49.272Z,33.17
2023-02-15T19:01:18.882Z,36.55
2023-02-15T19:03:47.540Z,33.90
2023-02-15T19:06:15.927Z,36.95
2023-02-15T19:08:47.110Z,34.92
2023-02-15T19:11:19.880Z,36.97
2023-02-15T19:13:48.744Z,33.15
2023-02-15T19:16:33.895Z,35.63
2023-02-15T19:19:00.890Z,30.83
2023-02-15T19:21:30.208Z,29.23
2023-02-15T19:24:02.557Z,30.85
2023-02-15T19:26:44.465Z,35.72
2023-02-15T19:29:13.843Z,35.22
2023-02-15T19:31:40.860Z,34.65
2023-02-15T19:34:14.247Z,29.13
2023-02-15T19:36:41.256Z,38.45
2023-02-15T19:39:39.084Z,38.47
2023-02-15T19:42:06.155Z,33.28
2023-02-15T19:44:32.890Z,36.70
2023-02-15T19:46:59.591Z,38.97
2023-02-15T19:49:26.247Z,37.13
2023-02-15T19:51:53.158Z,40.08
2023-02-15T19:54:30.595Z,36.45
2023-02-15T19:56:57.650Z,32.17
2023-02-15T19:59:29.686Z,32.63
2023-02-15T20:01:57.091Z,35.38
2023-02-15T20:04:24.732Z,38.83
2023-02-15T20:06:52.827Z,37.58
2023-02-15T20:09:35.336Z,37.10
2023-02-15T20:12:02.196Z,32.57
2023-02-15T20:14:28.927Z,35.78
2023-02-15T20:16:55.715Z,34.45
2023-02-15T20:19:22.461Z,37.90
2023-02-15T20:21:52.086Z,33.88
2023-02-15T20:24:20.630Z,35.00
2023-02-15T20:26:47.464Z,36.00
2023-02-15T20:29:15.217Z,33.85
2023-02-15T20:31:42.909Z,35.78
2023-02-15T20:34:09.933Z,33.00
2023-02-15T20:36:37.400Z,32.90
2023-02-15T20:39:12.630Z,32.78
2023-02-15T20:41:42.978Z,37.03
2023-02-15T20:44:27.585Z,37.08
2023-02-15T20:46:56.086Z,36.20
2023-02-15T20:49:24.135Z,31.05
2023-02-15T20:51:52.389Z,35.88
2023-02-15T20:54:21.749Z,35.70
2023-02-15T20:56:48.961Z,38.28
2023-02-15T20:59:24.552Z,34.83
2023-02-15T21:01:54.657Z,36.03
2023-02-15T21:04:28.921Z,39.45
2023-02-15T21:06:56.088Z,32.65
2023-02-15T21:09:23.003Z,34.97
2023-02-15T21:11:51.864Z,34.28
2023-02-15T21:14:20.609Z,34.70
2023-02-15T21:16:48.990Z,38.25
2023-02-15T21:19:17.696Z,34.85
2023-02-15T21:21:44.950Z,37.08
2023-02-15T21:24:15.943Z,38.47
2023-02-15T21:26:46.561Z,35.83
2023-02-15T21:29:25.197Z,35.60
2023-02-15T21:31:52.134Z,38.00
2023-02-15T21:34:19.124Z,38.45
2023-02-15T21:36:47.228Z,36.08
2023-02-15T21:39:23.732Z,39.28
2023-02-15T21:42:11.499Z,36.63
2023-02-15T21:44:57.272Z,39.70
2023-02-15T21:47:45.311Z,35.22
2023-02-15T21:50:33.288Z,39.83
2023-02-15T21:53:00.090Z,35.80
2023-02-15T21:55:27.073Z,35.50
2023-02-15T21:57:53.774Z,34.55
2023-02-15T22:00:22.450Z,35.90
2023-02-15T22:02:51.631Z,36.55
2023-02-15T22:05:21.132Z,35.58
2023-02-15T22:07:47.860Z,34.47
2023-02-15T22:10:14.528Z,33.92
2023-02-15T22:12:42.837Z,34.85
2023-02-15T22:15:21.151Z,35.38
2023-02-15T22:17:48.877Z,37.65
2023-02-15T22:20:21.620Z,40.17
2023-02-15T22:22:49.057Z,41.08
2023-02-15T22:25:19.034Z,39.42
2023-02-15T22:27:46.874Z,36.35
2023-02-15T22:30:28.568Z,38.92
2023-02-15T22:32:56.818Z,38.28
2023-02-15T22:35:26.476Z,36.85
2023-02-15T22:37:53.199Z,36.30
2023-02-15T22:40:20.784Z,42.95
2023-02-15T22:42:50.077Z,39.67
2023-02-15T22:45:21.874Z,40.50
2023-02-15T22:47:50.834Z,39.85
2023-02-15T22:50:23.240Z,39.95
2023-02-15T22:52:50.759Z,41.25
2023-02-15T22:55:19.831Z,39.15
2023-02-15T22:57:48.543Z,37.72
2023-02-15T23:00:18.406Z,43.30
2023-02-15T23:02:45.344Z,38.33
2023-02-15T23:05:23.430Z,38.25
2023-02-15T23:07:50.090Z,39.83
2023-02-15T23:10:21.513Z,38.60
2023-02-15T23:13:17.788Z,34.75
2023-02-15T23:15:48.620Z,39.13
2023-02-15T23:18:19.577Z,38.10
2023-02-15T23:20:57.248Z,34.20
2023-02-15T23:23:38.973Z,38.75
2023-02-15T23:26:21.513Z,40.47
2023-02-15T23:28:49.378Z,39.70
2023-02-15T23:31:24.665Z,35.85
2023-02-15T23:33:52.694Z,34.08
2023-02-15T23:36:32.158Z,37.95
2023-02-15T23:39:23.600Z,38.30
2023-02-15T23:41:51.075Z,32.33
2023-02-15T23:44:18.799Z,37.10
2023-02-15T23:46:46.808Z,34.67
2023-02-15T23:49:15.360Z,32.10
2023-02-15T23:51:50.573Z,36.85
2023-02-15T23:54:18.810Z,35.65
2023-02-15T23:56:47.694Z,41.75
2023-02-15T23:59:25.711Z,35.60
